createdAt,value
2023-05-23T00:02:08.987Z,4.10
2023-05-23T00:04:37.154Z,4.10
2023-05-23T00:07:05.131Z,3.70
2023-05-23T00:09:33.013Z,4.00
2023-05-23T00:12:01.215Z,4.00
2023-05-23T00:14:31.807Z,4.10
2023-05-23T00:17:00.780Z,3.20
2023-05-23T00:19:28.769Z,3.70
2023-05-23T00:21:57.176Z,3.70
2023-05-23T00:24:25.023Z,3.90
2023-05-23T00:26:52.795Z,3.50
2023-05-23T00:29:21.027Z,3.60
2023-05-23T00:31:48.946Z,3.50
2023-05-23T00:34:18.202Z,3.50
2023-05-23T00:36:48.208Z,3.70
2023-05-23T00:39:20.985Z,3.00
2023-05-23T00:41:51.837Z,3.40
2023-05-23T00:44:21.864Z,3.20
2023-05-23T00:46:52.580Z,3.20
2023-05-23T00:49:20.834Z,3.40
2023-05-23T00:51:50.051Z,3.50
2023-05-23T00:54:29.882Z,4.00
2023-05-23T00:56:57.756Z,4.10
2023-05-23T00:59:26.192Z,4.50
2023-05-23T01:01:55.192Z,3.60
2023-05-23T01:04:27.238Z,4.30
2023-05-23T01:06:55.645Z,4.10
2023-05-23T01:09:24.389Z,4.20
2023-05-23T01:12:01.661Z,4.30
2023-05-23T01:14:45.298Z,4.30
2023-05-23T01:17:20.640Z,4.40
2023-05-23T01:20:05.341Z,3.90
2023-05-23T01:22:42.399Z,4.40
2023-05-23T01:25:19.681Z,4.60
2023-05-23T01:27:53.593Z,4.40
2023-05-23T01:30:21.467Z,4.30
2023-05-23T01:32:49.572Z,4.40
2023-05-23T01:35:27.612Z,5.00
2023-05-23T01:37:56.053Z,5.20
2023-05-23T01:40:25.004Z,4.90
2023-05-23T01:42:53.090Z,4.60
2023-05-23T01:45:22.197Z,3.50
2023-05-23T01:47:50.686Z,4.80
2023-05-23T01:50:18.562Z,5.10
2023-05-23T01:52:49.500Z,4.30
2023-05-23T01:55:19.335Z,4.30
2023-05-23T02:00:18.788Z,4.70
2023-05-23T02:02:47.832Z,5.00
2023-05-23T02:05:17.553Z,5.10
2023-05-23T02:07:46.448Z,4.90
2023-05-23T02:10:14.214Z,4.50
2023-05-23T02:12:42.091Z,4.90
2023-05-23T02:15:10.326Z,4.90
2023-05-23T02:17:39.303Z,4.80
2023-05-23T02:20:08.135Z,4.70
2023-05-23T02:22:36.326Z,5.00
2023-05-23T02:25:04.733Z,4.80
2023-05-23T02:27:33.600Z,4.90
2023-05-23T02:30:01.316Z,5.10
2023-05-23T02:32:30.601Z,5.10
2023-05-23T02:34:58.557Z,4.80
2023-05-23T02:37:26.309Z,4.50
2023-05-23T02:39:54.282Z,5.00
2023-05-23T02:42:22.774Z,4.60
2023-05-23T02:44:50.960Z,4.60
2023-05-23T02:47:18.922Z,4.50
2023-05-23T02:49:46.696Z,5.10
2023-05-23T02:52:14.656Z,4.50
2023-05-23T02:54:42.626Z,4.80
2023-05-23T02:57:11.115Z,5.00
2023-05-23T02:59:40.003Z,4.70
2023-05-23T03:02:08.134Z,4.90
2023-05-23T03:04:38.412Z,5.10
2023-05-23T03:09:45.311Z,5.00
2023-05-23T03:12:13.181Z,5.00
2023-05-23T03:14:41.215Z,4.90
2023-05-23T03:17:09.023Z,5.20
2023-05-23T03:19:36.961Z,5.30
2023-05-23T03:22:05.135Z,5.00
2023-05-23T03:24:33.310Z,4.80
2023-05-23T03:27:02.312Z,4.60
2023-05-23T03:29:30.114Z,5.00
2023-05-23T03:31:59.933Z,4.90
2023-05-23T03:34:28.011Z,5.20
2023-05-23T03:36:56.382Z,5.30
2023-05-23T03:39:24.968Z,4.90
2023-05-23T03:41:52.849Z,5.00
2023-05-23T03:44:21.116Z,5.00
2023-05-23T03:46:48.883Z,4.80
2023-05-23T03:49:16.954Z,5.20
2023-05-23T03:51:44.722Z,4.80
2023-05-23T03:54:14.952Z,4.30
2023-05-23T03:56:42.712Z,4.50
2023-05-23T03:59:11.294Z,4.60
2023-05-23T04:01:40.088Z,4.50
2023-05-23T04:04:07.991Z,5.10
2023-05-23T04:09:07.580Z,4.70
2023-05-23T04:11:39.714Z,5.00
2023-05-23T04:14:08.639Z,4.60
2023-05-23T04:16:38.929Z,4.90
2023-05-23T04:19:07.000Z,3.50
2023-05-23T04:21:36.454Z,4.20
2023-05-23T04:24:08.647Z,4.40
2023-05-23T04:26:39.845Z,4.30
2023-05-23T04:29:07.920Z,4.40
2023-05-23T04:31:36.691Z,4.50
2023-05-23T04:34:04.886Z,4.90
2023-05-23T04:36:38.482Z,4.70
2023-05-23T04:39:06.566Z,4.50
2023-05-23T04:41:40.359Z,4.60
2023-05-23T04:44:34.549Z,5.00
2023-05-23T04:47:16.245Z,4.60
2023-05-23T04:50:03.407Z,4.20
2023-05-23T04:52:34.453Z,4.60
2023-05-23T04:55:03.003Z,3.80
2023-05-23T04:57:31.176Z,3.70
2023-05-23T04:59:59.140Z,4.30
2023-05-23T05:02:27.941Z,3.80
2023-05-23T05:04:55.794Z,4.10
2023-05-23T05:07:23.765Z,4.10
2023-05-23T05:09:51.532Z,4.10
2023-05-23T05:12:19.448Z,4.40
2023-05-23T05:14:47.263Z,4.30
2023-05-23T05:17:15.041Z,4.20
2023-05-23T05:19:53.344Z,4.40
2023-05-23T05:22:21.121Z,4.30
2023-05-23T05:24:49.592Z,4.10
2023-05-23T05:27:17.566Z,3.80
2023-05-23T05:31:22.967Z,3.90
2023-05-23T05:33:51.308Z,4.70
2023-05-23T05:36:19.993Z,4.30
2023-05-23T05:38:48.267Z,4.60
2023-05-23T05:41:18.006Z,4.20
2023-05-23T05:43:49.227Z,4.00
2023-05-23T05:46:17.035Z,4.20
2023-05-23T05:48:46.588Z,4.10
2023-05-23T05:51:14.686Z,4.40
2023-05-23T05:53:43.260Z,4.00
2023-05-23T05:56:11.337Z,3.90
2023-05-23T05:58:40.234Z,4.30
2023-05-23T06:01:10.149Z,4.00
2023-05-23T06:03:38.291Z,4.10
2023-05-23T06:06:07.219Z,4.10
2023-05-23T06:08:34.981Z,4.20
2023-05-23T06:11:02.750Z,4.30
2023-05-23T06:13:31.483Z,4.70
2023-05-23T06:15:59.375Z,3.90
2023-05-23T06:18:27.420Z,4.60
2023-05-23T06:20:55.143Z,3.90
2023-05-23T06:23:23.216Z,4.30
2023-05-23T06:25:51.432Z,4.00
2023-05-23T06:28:19.258Z,4.20
2023-05-23T06:30:47.068Z,3.90
2023-05-23T06:33:14.955Z,4.50
2023-05-23T06:35:43.784Z,4.10
2023-05-23T06:38:11.753Z,4.00
2023-05-23T06:40:41.768Z,3.90
2023-05-23T06:43:10.355Z,3.80
2023-05-23T06:46:00.802Z,4.30
2023-05-23T06:48:29.489Z,4.30
2023-05-23T06:50:57.457Z,4.60
2023-05-23T06:53:26.097Z,4.20
2023-05-23T06:55:53.872Z,4.40
2023-05-23T06:58:22.654Z,4.30
2023-05-23T07:00:50.537Z,4.20
2023-05-23T07:03:31.445Z,4.40
2023-05-23T07:06:01.979Z,3.90
2023-05-23T07:08:30.510Z,4.30
2023-05-23T07:11:02.185Z,4.60
2023-05-23T07:13:35.983Z,4.10
2023-05-23T07:16:04.574Z,4.10
2023-05-23T07:18:34.494Z,4.60
2023-05-23T07:21:03.892Z,4.00
2023-05-23T07:23:34.923Z,4.20
2023-05-23T07:26:03.565Z,4.20
2023-05-23T07:28:41.052Z,4.20
2023-05-23T07:31:10.357Z,3.70
2023-05-23T07:36:07.437Z,4.40
2023-05-23T07:38:35.246Z,3.70
2023-05-23T07:41:11.547Z,3.90
2023-05-23T07:43:41.118Z,3.70
2023-05-23T07:46:09.439Z,3.60
2023-05-23T07:48:37.677Z,3.50
2023-05-23T07:51:05.442Z,3.60
2023-05-23T07:53:33.756Z,3.30
2023-05-23T07:56:03.999Z,3.00
2023-05-23T07:58:34.780Z,3.70
2023-05-23T08:01:04.287Z,3.40
2023-05-23T08:03:51.016Z,3.60
2023-05-23T08:06:22.863Z,3.20
2023-05-23T08:08:51.449Z,2.90
2023-05-23T08:11:19.414Z,2.90
2023-05-23T08:13:50.571Z,3.30
2023-05-23T08:16:38.041Z,3.00
2023-05-23T08:19:13.319Z,3.20
2023-05-23T08:21:41.724Z,3.40
2023-05-23T08:24:09.482Z,3.50
2023-05-23T08:26:37.863Z,3.50
2023-05-23T08:29:06.980Z,3.10
2023-05-23T08:31:37.202Z,3.20
2023-05-23T08:34:05.875Z,3.20
2023-05-23T08:36:36.704Z,2.80
2023-05-23T08:39:05.304Z,3.00
2023-05-23T08:41:37.067Z,2.90
2023-05-23T08:44:08.623Z,3.20
2023-05-23T08:46:44.796Z,3.00
2023-05-23T08:49:14.572Z,3.40
2023-05-23T08:51:43.284Z,3.30
2023-05-23T08:54:15.363Z,3.10
2023-05-23T08:56:43.882Z,3.50
2023-05-23T08:59:39.865Z,3.40
2023-05-23T09:02:08.952Z,3.20
2023-05-23T09:04:37.641Z,3.30
2023-05-23T09:07:12.788Z,3.30
2023-05-23T09:09:40.767Z,2.80
2023-05-23T09:12:10.666Z,3.10
2023-05-23T09:14:38.637Z,3.20
2023-05-23T09:17:08.784Z,3.20
2023-05-23T09:19:41.375Z,2.70
2023-05-23T09:22:26.182Z,3.00
2023-05-23T09:25:02.265Z,3.00
2023-05-23T09:27:31.536Z,2.90
2023-05-23T09:29:59.662Z,2.60
2023-05-23T09:32:28.210Z,2.70
2023-05-23T09:34:57.739Z,2.70
2023-05-23T09:37:48.236Z,3.30
2023-05-23T09:40:16.643Z,2.70
2023-05-23T09:42:55.548Z,2.70
2023-05-23T09:45:30.083Z,3.00
2023-05-23T09:47:58.087Z,2.80
2023-05-23T09:50:31.369Z,2.80
2023-05-23T09:53:00.463Z,3.30
2023-05-23T09:55:28.213Z,3.00
2023-05-23T09:57:58.919Z,2.80
2023-05-23T10:00:26.703Z,2.70
2023-05-23T10:03:14.275Z,2.60
2023-05-23T10:05:46.275Z,2.50
2023-05-23T10:08:40.510Z,3.00
2023-05-23T10:11:14.516Z,2.50
2023-05-23T10:13:44.290Z,2.70
2023-05-23T10:18:46.198Z,2.70
2023-05-23T10:21:17.690Z,2.50
2023-05-23T10:23:47.667Z,2.90
2023-05-23T10:26:15.433Z,2.70
2023-05-23T10:28:43.198Z,2.90
2023-05-23T10:31:11.088Z,2.80
2023-05-23T10:33:42.416Z,2.70
2023-05-23T10:36:13.569Z,2.70
2023-05-23T10:39:12.764Z,2.90
2023-05-23T10:41:54.096Z,2.70
2023-05-23T10:44:31.473Z,2.60
2023-05-23T10:47:03.422Z,2.90
2023-05-23T10:49:47.863Z,2.80
2023-05-23T10:52:17.023Z,2.20
2023-05-23T10:54:45.781Z,2.70
2023-05-23T10:57:17.267Z,2.70
2023-05-23T10:59:45.953Z,3.60
2023-05-23T11:02:18.752Z,2.70
2023-05-23T11:04:48.642Z,2.90
2023-05-23T11:07:32.332Z,2.70
2023-05-23T11:10:10.903Z,3.00
2023-05-23T11:12:42.559Z,2.90
2023-05-23T11:15:21.008Z,3.00
2023-05-23T11:17:55.820Z,2.60
2023-05-23T11:20:28.749Z,2.60
2023-05-23T11:23:04.630Z,2.80
2023-05-23T11:25:42.665Z,2.40
2023-05-23T11:28:13.856Z,2.90
2023-05-23T11:30:42.091Z,2.60
2023-05-23T11:33:17.343Z,2.30
2023-05-23T11:35:46.664Z,2.80
2023-05-23T11:38:15.542Z,2.30
2023-05-23T11:40:45.984Z,2.70
2023-05-23T11:43:16.914Z,2.30
2023-05-23T11:45:47.295Z,2.20
2023-05-23T11:48:16.982Z,3.20
2023-05-23T11:53:22.335Z,2.60
2023-05-23T11:56:00.751Z,2.50
2023-05-23T11:58:36.432Z,2.10
2023-05-23T12:01:08.676Z,2.50
2023-05-23T12:03:46.588Z,2.80
2023-05-23T12:06:21.584Z,2.60
2023-05-23T12:08:49.290Z,2.20
2023-05-23T12:11:18.223Z,2.00
2023-05-23T12:13:46.560Z,2.20
2023-05-23T12:16:15.367Z,2.10
2023-05-23T12:18:43.439Z,2.20
2023-05-23T12:21:12.012Z,2.20
2023-05-23T12:23:39.776Z,2.30
2023-05-23T12:26:08.014Z,2.20
2023-05-23T12:28:36.628Z,2.00
2023-05-23T12:31:13.670Z,2.40
2023-05-23T12:33:44.227Z,1.90
2023-05-23T12:36:12.577Z,2.10
2023-05-23T12:38:41.242Z,2.10
2023-05-23T12:41:21.184Z,2.00
2023-05-23T12:43:53.508Z,2.20
2023-05-23T12:46:22.390Z,2.20
2023-05-23T12:48:50.322Z,2.10
2023-05-23T12:51:18.023Z,2.10
2023-05-23T12:53:45.856Z,2.00
2023-05-23T12:56:13.725Z,1.80
2023-05-23T12:58:41.640Z,2.10
2023-05-23T13:01:09.507Z,2.50
2023-05-23T13:03:37.428Z,2.00
2023-05-23T13:06:06.975Z,1.80
2023-05-23T13:08:34.801Z,1.80
2023-05-23T13:11:02.588Z,1.60
2023-05-23T13:13:30.895Z,1.90
2023-05-23T13:15:58.921Z,1.80
2023-05-23T13:18:26.819Z,1.90
2023-05-23T13:20:54.769Z,2.00
2023-05-23T13:23:22.624Z,2.30
2023-05-23T13:25:51.622Z,2.10
2023-05-23T13:28:19.494Z,1.60
2023-05-23T13:30:47.796Z,1.70
2023-05-23T13:33:15.934Z,2.00
2023-05-23T13:35:44.700Z,2.10
2023-05-23T13:38:13.117Z,2.20
2023-05-23T13:40:41.167Z,1.80
2023-05-23T13:43:09.284Z,1.90
2023-05-23T13:45:38.384Z,1.90
2023-05-23T13:48:06.161Z,2.20
2023-05-23T13:50:34.151Z,1.90
2023-05-23T13:53:02.287Z,2.20
2023-05-23T13:55:31.065Z,2.50
2023-05-23T13:57:58.829Z,2.20
2023-05-23T14:00:27.108Z,2.10
2023-05-23T14:02:55.274Z,2.10
2023-05-23T14:05:23.932Z,2.20
2023-05-23T14:07:51.738Z,2.00
2023-05-23T14:10:19.510Z,1.90
2023-05-23T14:12:47.486Z,1.70
2023-05-23T14:15:16.529Z,2.20
2023-05-23T14:17:44.364Z,2.10
2023-05-23T14:20:12.721Z,2.10
2023-05-23T14:22:41.820Z,2.10
2023-05-23T14:25:10.280Z,2.20
2023-05-23T14:27:38.377Z,2.00
2023-05-23T14:30:07.046Z,2.40
2023-05-23T14:32:39.015Z,2.10
2023-05-23T14:35:07.584Z,2.70
2023-05-23T14:37:35.642Z,2.20
2023-05-23T14:40:05.094Z,2.20
2023-05-23T14:42:33.256Z,2.20
2023-05-23T14:45:01.044Z,2.20
2023-05-23T14:47:28.858Z,2.10
2023-05-23T14:49:56.666Z,2.20
2023-05-23T14:52:24.432Z,2.50
2023-05-23T14:54:52.111Z,2.30
2023-05-23T14:57:19.875Z,2.30
2023-05-23T14:59:47.679Z,2.20
2023-05-23T15:02:15.610Z,2.20
2023-05-23T15:04:43.794Z,2.60
2023-05-23T15:07:11.541Z,2.10
2023-05-23T15:09:39.308Z,2.10
2023-05-23T15:12:10.167Z,2.40
2023-05-23T15:14:37.913Z,2.30
2023-05-23T15:17:08.452Z,2.00
2023-05-23T15:19:37.014Z,2.50
2023-05-23T15:22:05.512Z,2.30
2023-05-23T15:24:34.961Z,2.60
2023-05-23T15:29:47.856Z,2.70
2023-05-23T15:32:15.741Z,2.40
2023-05-23T15:34:44.309Z,2.70
2023-05-23T15:37:12.174Z,2.40
2023-05-23T15:39:39.937Z,2.70
2023-05-23T15:42:08.167Z,2.50
2023-05-23T15:44:36.303Z,2.60
2023-05-23T15:47:04.267Z,3.00
2023-05-23T15:49:32.024Z,2.30
2023-05-23T15:51:59.789Z,2.80
2023-05-23T15:54:27.561Z,3.00
2023-05-23T15:56:55.380Z,2.40
2023-05-23T15:59:23.090Z,2.80
2023-05-23T16:01:51.159Z,2.30
2023-05-23T16:04:19.190Z,2.70
2023-05-23T16:06:47.114Z,3.00
2023-05-23T16:09:14.971Z,2.80
2023-05-23T16:11:42.749Z,2.70
2023-05-23T16:14:10.504Z,2.60
2023-05-23T16:16:38.329Z,2.50
2023-05-23T16:19:06.250Z,2.50
2023-05-23T16:21:34.018Z,2.40
2023-05-23T16:24:02.080Z,2.70
2023-05-23T16:26:29.843Z,3.10
2023-05-23T16:28:57.610Z,3.10
2023-05-23T16:31:26.869Z,3.00
2023-05-23T16:33:54.891Z,3.00
2023-05-23T16:36:23.638Z,3.10
2023-05-23T16:38:52.966Z,2.80
2023-05-23T16:41:22.586Z,2.90
2023-05-23T16:43:50.354Z,2.60
2023-05-23T16:46:20.313Z,2.70
2023-05-23T16:48:49.058Z,2.60
2023-05-23T16:51:16.830Z,2.70
2023-05-23T16:53:44.588Z,2.70
2023-05-23T16:56:12.363Z,2.80
2023-05-23T16:58:40.125Z,3.30
2023-05-23T17:01:08.740Z,2.90
2023-05-23T17:03:36.815Z,3.10
2023-05-23T17:06:04.766Z,2.70
2023-05-23T17:08:32.618Z,3.10
2023-05-23T17:11:00.385Z,2.90
2023-05-23T17:13:28.354Z,2.80
2023-05-23T17:15:56.211Z,2.60
2023-05-23T17:18:49.304Z,3.00
2023-05-23T17:21:17.149Z,2.40
2023-05-23T17:23:45.226Z,2.60
2023-05-23T17:26:13.191Z,2.70
2023-05-23T17:28:40.958Z,2.70
2023-05-23T17:31:08.758Z,3.30
2023-05-23T17:33:36.784Z,3.00
2023-05-23T17:36:05.061Z,3.10
2023-05-23T17:38:33.056Z,3.10
2023-05-23T17:41:00.919Z,3.10
2023-05-23T17:43:28.785Z,2.40
2023-05-23T17:49:19.718Z,3.00
2023-05-23T17:51:47.077Z,2.90
2023-05-23T17:54:14.020Z,3.10
2023-05-23T17:56:42.751Z,3.10
2023-05-23T17:59:09.861Z,2.90
2023-05-23T18:01:36.920Z,3.10
2023-05-23T18:04:04.006Z,3.20
2023-05-23T18:06:31.718Z,3.00
2023-05-23T18:08:58.777Z,3.40
2023-05-23T18:11:27.555Z,2.90
2023-05-23T18:13:54.612Z,3.10
2023-05-23T18:16:21.863Z,3.10
2023-05-23T18:18:49.183Z,3.40
2023-05-23T18:21:18.088Z,3.80
2023-05-23T18:23:45.269Z,3.70
2023-05-23T18:26:12.208Z,3.80
2023-05-23T18:28:39.167Z,3.50
2023-05-23T18:31:06.212Z,3.70
2023-05-23T18:33:33.209Z,3.70
2023-05-23T18:36:01.144Z,3.90
2023-05-23T18:38:28.205Z,4.00
2023-05-23T18:40:55.323Z,3.70
2023-05-23T18:43:22.470Z,3.70
2023-05-23T18:45:49.421Z,3.80
2023-05-23T18:48:16.676Z,3.60
2023-05-23T18:50:44.020Z,3.60
2023-05-23T18:53:11.691Z,3.60
2023-05-23T18:55:38.848Z,3.60
2023-05-23T18:58:05.997Z,3.30
2023-05-23T19:00:33.556Z,3.90
2023-05-23T19:03:00.672Z,3.40
2023-05-23T19:05:28.984Z,4.00
2023-05-23T19:07:55.932Z,4.60
2023-05-23T19:10:22.877Z,3.80
2023-05-23T19:12:50.126Z,4.40
2023-05-23T19:15:17.382Z,4.90
2023-05-23T19:17:44.865Z,5.00
2023-05-23T19:20:12.500Z,5.20
2023-05-23T19:22:51.052Z,5.20
2023-05-23T19:25:20.582Z,5.30
2023-05-23T19:27:47.475Z,4.90
2023-05-23T19:30:14.620Z,4.80
2023-05-23T19:32:41.803Z,5.20
2023-05-23T19:35:09.472Z,4.50
2023-05-23T19:37:36.908Z,4.20
2023-05-23T19:40:04.723Z,4.30
2023-05-23T19:42:32.622Z,4.10
2023-05-23T19:44:59.673Z,4.00
2023-05-23T19:47:28.509Z,3.70
2023-05-23T19:49:57.367Z,4.00
2023-05-23T19:52:24.348Z,4.30
2023-05-23T19:54:51.570Z,4.60
2023-05-23T19:57:18.593Z,5.30
2023-05-23T19:59:45.791Z,4.80
2023-05-23T20:02:13.305Z,4.40
2023-05-23T20:04:41.482Z,6.20
2023-05-23T20:07:08.424Z,6.80
2023-05-23T20:09:35.983Z,6.40
2023-05-23T20:12:02.931Z,6.90
2023-05-23T20:14:30.388Z,6.50
2023-05-23T20:16:57.444Z,6.60
2023-05-23T20:19:25.246Z,6.20
2023-05-23T20:21:52.453Z,6.30
2023-05-23T20:24:19.502Z,5.90
2023-05-23T20:26:46.652Z,6.40
2023-05-23T20:29:13.900Z,6.10
2023-05-23T20:31:40.816Z,6.50
2023-05-23T20:34:07.801Z,7.30
2023-05-23T20:36:35.159Z,7.50
2023-05-23T20:39:02.105Z,7.60
2023-05-23T20:41:29.185Z,8.10
2023-05-23T20:43:56.295Z,7.60
2023-05-23T20:46:25.552Z,8.40
2023-05-23T20:48:52.640Z,8.20
2023-05-23T20:51:19.497Z,8.40
2023-05-23T20:53:46.431Z,7.90
2023-05-23T20:56:14.914Z,8.60
2023-05-23T20:58:42.784Z,8.00
2023-05-23T21:01:09.797Z,8.30
2023-05-23T21:03:36.929Z,8.70
2023-05-23T21:06:04.334Z,9.80
2023-05-23T21:08:33.053Z,9.20
2023-05-23T21:11:01.706Z,8.50
2023-05-23T21:13:29.981Z,10.10
2023-05-23T21:15:56.932Z,12.00
2023-05-23T21:18:23.992Z,10.50
2023-05-23T21:20:50.923Z,10.30
2023-05-23T21:23:17.817Z,8.40
2023-05-23T21:25:44.923Z,8.20
2023-05-23T21:28:12.379Z,8.40
2023-05-23T21:30:39.916Z,8.90
2023-05-23T21:33:07.517Z,8.10
2023-05-23T21:35:35.988Z,7.40
2023-05-23T21:38:03.130Z,7.20
2023-05-23T21:40:30.175Z,7.60
2023-05-23T21:42:57.532Z,7.80
2023-05-23T21:45:24.475Z,6.50
2023-05-23T21:47:51.406Z,6.10
2023-05-23T21:50:18.575Z,6.40
2023-05-23T21:52:45.514Z,6.50
2023-05-23T21:55:12.674Z,6.10
2023-05-23T21:57:39.724Z,6.70
2023-05-23T22:00:12.013Z,6.80
2023-05-23T22:02:44.004Z,7.00
2023-05-23T22:05:13.607Z,6.80
2023-05-23T22:07:40.819Z,6.60
2023-05-23T22:10:08.679Z,7.10
2023-05-23T22:12:36.139Z,7.40
2023-05-23T22:15:03.503Z,7.50
2023-05-23T22:17:33.733Z,7.80
2023-05-23T22:20:04.738Z,8.20
2023-05-23T22:22:32.015Z,8.70
2023-05-23T22:24:58.969Z,8.10
2023-05-23T22:27:26.006Z,8.90
2023-05-23T22:29:53.173Z,9.10
2023-05-23T22:32:20.308Z,8.40
2023-05-23T22:34:47.261Z,7.80
2023-05-23T22:37:15.744Z,7.20
2023-05-23T22:39:42.592Z,7.20
2023-05-23T22:42:09.526Z,7.10
2023-05-23T22:44:36.731Z,7.50
2023-05-23T22:47:04.250Z,7.30
2023-05-23T22:49:31.697Z,7.10
2023-05-23T22:51:58.951Z,7.50
2023-05-23T22:54:25.793Z,7.90
2023-05-23T22:56:52.877Z,8.10
2023-05-23T22:59:20.238Z,8.10
2023-05-23T23:01:47.347Z,7.70
2023-05-23T23:04:14.602Z,7.30
2023-05-23T23:06:42.818Z,6.50
2023-05-23T23:09:10.548Z,6.50
2023-05-23T23:11:38.007Z,6.70
2023-05-23T23:14:05.152Z,6.50
2023-05-23T23:16:32.130Z,6.40
2023-05-23T23:18:59.155Z,6.30
2023-05-23T23:21:26.407Z,6.00
2023-05-23T23:23:53.346Z,6.60
2023-05-23T23:26:21.738Z,5.90
2023-05-23T23:28:48.671Z,5.50
2023-05-23T23:31:15.872Z,5.50
2023-05-23T23:33:42.921Z,6.30
2023-05-23T23:36:10.223Z,5.80
2023-05-23T23:38:37.785Z,5.90
2023-05-23T23:41:04.630Z,6.60
2023-05-23T23:43:32.099Z,6.80
2023-05-23T23:45:59.080Z,6.50
2023-05-23T23:48:26.079Z,6.50
2023-05-23T23:50:53.032Z,5.90
2023-05-23T23:53:21.097Z,5.80
2023-05-23T23:55:48.657Z,6.80
2023-05-23T23:58:15.867Z,6.20
